createdAt,value
2023-03-18T00:02:10.546Z,2.54
2023-03-18T00:04:37.264Z,2.47
2023-03-18T00:07:03.834Z,2.27
2023-03-18T00:09:30.406Z,2.33
2023-03-18T00:11:56.982Z,2.27
2023-03-18T00:14:23.912Z,2.18
2023-03-18T00:16:50.778Z,2.27
2023-03-18T00:19:17.818Z,2.11
2023-03-18T00:21:44.579Z,2.21
2023-03-18T00:24:12.282Z,2.09
2023-03-18T00:26:39.511Z,2.00
2023-03-18T00:29:05.984Z,2.02
2023-03-18T00:31:32.609Z,2.15
2023-03-18T00:33:59.259Z,1.82
2023-03-18T00:36:26.386Z,1.67
2023-03-18T00:38:57.492Z,1.55
2023-03-18T00:41:25.028Z,1.47
2023-03-18T00:43:54.449Z,1.46
2023-03-18T00:46:24.427Z,1.43
2023-03-18T00:48:53.168Z,1.52
2023-03-18T00:51:20.610Z,1.55
2023-03-18T00:53:50.496Z,1.47
2023-03-18T00:56:18.231Z,1.34
2023-03-18T00:58:45.376Z,1.62
2023-03-18T01:01:13.803Z,1.70
2023-03-18T01:03:42.311Z,1.45
2023-03-18T01:06:11.376Z,1.31
2023-03-18T01:08:38.645Z,1.22
2023-03-18T01:11:05.406Z,1.47
2023-03-18T01:13:32.372Z,1.58
2023-03-18T01:15:58.917Z,1.49
2023-03-18T01:18:25.375Z,1.59
2023-03-18T01:20:52.073Z,1.61
2023-03-18T01:23:21.072Z,1.68
2023-03-18T01:25:47.602Z,1.75
2023-03-18T01:28:18.445Z,1.59
2023-03-18T01:30:44.989Z,1.44
2023-03-18T01:33:12.506Z,1.38
2023-03-18T01:35:39.455Z,1.19
2023-03-18T01:38:06.057Z,1.20
2023-03-18T01:40:34.330Z,1.18
2023-03-18T01:43:13.284Z,1.42
2023-03-18T01:45:42.011Z,1.15
2023-03-18T01:48:14.320Z,1.30
2023-03-18T01:50:41.114Z,0.91
2023-03-18T01:53:09.859Z,1.06
2023-03-18T01:55:37.749Z,1.13
2023-03-18T01:58:08.037Z,1.17
2023-03-18T02:00:38.358Z,1.10
2023-03-18T02:03:04.871Z,1.23
2023-03-18T02:05:31.799Z,1.12
2023-03-18T02:07:58.343Z,1.03
2023-03-18T02:10:26.115Z,0.99
2023-03-18T02:13:00.417Z,0.93
2023-03-18T02:15:35.408Z,0.82
2023-03-18T02:18:05.795Z,0.92
2023-03-18T02:20:55.706Z,1.01
2023-03-18T02:23:36.725Z,0.93
2023-03-18T02:26:21.933Z,1.10
2023-03-18T02:28:50.688Z,0.91
2023-03-18T02:31:18.161Z,0.95
2023-03-18T02:33:46.575Z,1.13
2023-03-18T02:36:21.365Z,1.06
2023-03-18T02:38:49.076Z,1.04
2023-03-18T02:41:23.751Z,0.86
2023-03-18T02:43:51.142Z,0.86
2023-03-18T02:46:27.386Z,0.71
2023-03-18T02:48:55.142Z,1.02
2023-03-18T02:51:23.195Z,0.71
2023-03-18T02:53:50.793Z,0.84
2023-03-18T02:56:17.940Z,0.70
2023-03-18T02:58:44.837Z,0.59
2023-03-18T03:01:12.319Z,0.73
2023-03-18T03:03:39.690Z,0.63
2023-03-18T03:06:07.239Z,0.82
2023-03-18T03:08:33.831Z,0.81
2023-03-18T03:11:00.408Z,0.78
2023-03-18T03:13:29.617Z,0.66
2023-03-18T03:15:56.527Z,0.55
2023-03-18T03:18:23.161Z,0.56
2023-03-18T03:20:53.366Z,0.42
2023-03-18T03:23:20.355Z,0.41
2023-03-18T03:25:49.287Z,0.44
2023-03-18T03:28:16.658Z,0.48
2023-03-18T03:30:43.718Z,0.39
2023-03-18T03:33:10.268Z,0.45
2023-03-18T03:35:37.818Z,0.46
2023-03-18T03:38:06.035Z,0.47
2023-03-18T03:40:32.722Z,0.64
2023-03-18T03:42:59.759Z,0.58
2023-03-18T03:45:26.763Z,0.53
2023-03-18T03:47:54.304Z,0.50
2023-03-18T03:50:21.588Z,0.40
2023-03-18T03:52:49.200Z,0.18
2023-03-18T03:55:17.564Z,0.27
2023-03-18T03:57:44.341Z,0.36
2023-03-18T04:00:13.518Z,0.35
2023-03-18T04:02:47.227Z,0.23
2023-03-18T04:05:14.377Z,0.18
2023-03-18T04:07:41.247Z,0.28
2023-03-18T04:10:09.585Z,0.46
2023-03-18T04:12:36.876Z,0.39
2023-03-18T04:15:03.513Z,0.23
2023-03-18T04:17:30.141Z,0.12
2023-03-18T04:19:56.985Z,0.02
2023-03-18T04:22:29.532Z,0.11
2023-03-18T04:24:56.500Z,0.18
2023-03-18T04:27:23.570Z,0.36
2023-03-18T04:29:50.808Z,0.20
2023-03-18T04:32:18.347Z,0.29
2023-03-18T04:34:45.269Z,0.22
2023-03-18T04:37:14.404Z,0.20
2023-03-18T04:39:43.417Z,0.30
2023-03-18T04:42:10.918Z,0.47
2023-03-18T04:44:37.456Z,0.49
2023-03-18T04:47:04.862Z,0.35
2023-03-18T04:49:31.878Z,0.00
2023-03-18T04:52:02.247Z,0.03
2023-03-18T04:54:31.383Z,-0.06
2023-03-18T04:57:02.264Z,0.03
2023-03-18T04:59:31.580Z,-0.11
2023-03-18T05:02:03.161Z,-0.16
2023-03-18T05:04:29.885Z,-0.12
2023-03-18T05:06:57.017Z,-0.03
2023-03-18T05:09:30.156Z,-0.04
2023-03-18T05:11:58.032Z,-0.07
2023-03-18T05:14:31.189Z,-0.03
2023-03-18T05:16:59.772Z,-0.17
2023-03-18T05:19:28.173Z,-0.24
2023-03-18T05:22:30.509Z,-0.26
2023-03-18T05:25:07.008Z,-0.21
2023-03-18T05:27:34.900Z,0.05
2023-03-18T05:30:06.916Z,0.06
2023-03-18T05:32:39.041Z,0.10
2023-03-18T05:35:08.346Z,0.00
2023-03-18T05:37:43.820Z,0.03
2023-03-18T05:40:12.796Z,0.22
2023-03-18T05:42:55.410Z,0.53
2023-03-18T05:45:29.870Z,1.17
2023-03-18T05:47:57.356Z,1.27
2023-03-18T05:50:38.161Z,0.82
2023-03-18T05:53:08.918Z,0.77
2023-03-18T05:55:40.310Z,0.70
2023-03-18T05:58:07.445Z,0.93
2023-03-18T06:00:37.633Z,1.41
2023-03-18T06:03:04.574Z,1.82
2023-03-18T06:05:31.818Z,2.06
2023-03-18T06:07:58.629Z,2.66
2023-03-18T06:10:25.731Z,3.02
2023-03-18T06:12:55.347Z,2.99
2023-03-18T06:15:22.754Z,3.33
2023-03-18T06:17:50.488Z,3.60
2023-03-18T06:20:19.433Z,3.98
2023-03-18T06:22:49.786Z,4.12
2023-03-18T06:25:17.433Z,4.33
2023-03-18T06:27:43.943Z,4.50
2023-03-18T06:30:10.712Z,4.48
2023-03-18T06:32:40.222Z,4.18
2023-03-18T06:35:07.758Z,4.37
2023-03-18T06:37:36.884Z,4.74
2023-03-18T06:40:03.775Z,5.33
2023-03-18T06:42:30.499Z,5.34
2023-03-18T06:45:07.598Z,6.06
2023-03-18T06:47:47.999Z,6.82
2023-03-18T06:50:15.292Z,6.75
2023-03-18T06:52:43.565Z,7.48
2023-03-18T06:55:14.835Z,7.79
2023-03-18T06:57:44.914Z,8.26
2023-03-18T07:00:15.606Z,8.52
2023-03-18T07:02:42.225Z,7.39
2023-03-18T07:05:12.697Z,7.95
2023-03-18T07:07:40.901Z,8.20
2023-03-18T07:10:09.191Z,8.56
2023-03-18T07:12:36.021Z,8.40
2023-03-18T07:15:03.277Z,8.18
2023-03-18T07:17:29.780Z,8.95
2023-03-18T07:19:57.180Z,9.16
2023-03-18T07:22:24.647Z,8.85
2023-03-18T07:24:52.448Z,9.80
2023-03-18T07:27:18.998Z,9.25
2023-03-18T07:29:45.512Z,9.28
2023-03-18T07:32:11.976Z,10.14
2023-03-18T07:34:38.409Z,9.18
2023-03-18T07:37:04.925Z,9.56
2023-03-18T07:39:31.858Z,9.64
2023-03-18T07:41:58.294Z,9.14
2023-03-18T07:44:29.370Z,9.71
2023-03-18T07:46:56.002Z,10.50
2023-03-18T07:49:23.801Z,10.74
2023-03-18T07:51:50.281Z,11.33
2023-03-18T07:54:17.980Z,11.59
2023-03-18T07:56:44.608Z,12.00
2023-03-18T07:59:12.329Z,11.43
2023-03-18T08:01:39.646Z,11.68
2023-03-18T08:04:06.207Z,11.58
2023-03-18T08:06:32.917Z,11.74
2023-03-18T08:08:59.975Z,10.56
2023-03-18T08:11:26.470Z,10.93
2023-03-18T08:13:53.092Z,10.94
2023-03-18T08:16:19.666Z,11.04
2023-03-18T08:18:46.160Z,10.05
2023-03-18T08:21:12.622Z,11.50
2023-03-18T08:23:39.253Z,11.73
2023-03-18T08:26:05.768Z,11.50
2023-03-18T08:28:32.315Z,11.82
2023-03-18T08:30:59.300Z,11.81
2023-03-18T08:33:27.032Z,12.56
2023-03-18T08:35:57.891Z,13.11
2023-03-18T08:38:24.877Z,13.16
2023-03-18T08:40:51.800Z,12.79
2023-03-18T08:43:18.305Z,12.62
2023-03-18T08:45:44.944Z,13.16
2023-03-18T08:48:11.492Z,12.17
2023-03-18T08:50:38.050Z,11.75
2023-03-18T08:53:04.597Z,11.56
2023-03-18T08:55:32.738Z,11.63
2023-03-18T08:58:00.133Z,11.96
2023-03-18T09:00:26.918Z,11.97
2023-03-18T09:02:53.462Z,12.16
2023-03-18T09:05:20.628Z,12.61
2023-03-18T09:07:47.416Z,12.34
2023-03-18T09:10:14.771Z,12.26
2023-03-18T09:12:42.305Z,12.30
2023-03-18T09:15:10.177Z,13.09
2023-03-18T09:17:56.517Z,14.11
2023-03-18T09:20:27.008Z,13.74
2023-03-18T09:22:53.566Z,13.96
2023-03-18T09:25:20.402Z,12.33
2023-03-18T09:27:46.944Z,14.00
2023-03-18T09:30:14.133Z,14.56
2023-03-18T09:32:41.126Z,13.80
2023-03-18T09:35:12.577Z,13.52
2023-03-18T09:37:40.425Z,14.49
2023-03-18T09:40:10.717Z,14.07
2023-03-18T09:42:56.532Z,14.08
2023-03-18T09:45:22.953Z,13.54
2023-03-18T09:48:01.772Z,13.80
2023-03-18T09:51:04.188Z,14.20
2023-03-18T09:53:37.466Z,14.22
2023-03-18T09:56:05.156Z,14.31
2023-03-18T09:58:38.419Z,13.40
2023-03-18T10:01:06.452Z,14.11
2023-03-18T10:03:36.157Z,14.46
2023-03-18T10:06:19.646Z,14.43
2023-03-18T10:08:48.890Z,15.25
2023-03-18T10:11:22.065Z,14.96
2023-03-18T10:14:00.981Z,15.09
2023-03-18T10:16:30.506Z,14.93
2023-03-18T10:18:57.195Z,15.44
2023-03-18T10:21:33.356Z,15.46
2023-03-18T10:24:02.783Z,14.85
2023-03-18T10:26:44.933Z,15.08
2023-03-18T10:29:11.536Z,15.87
2023-03-18T10:31:56.844Z,14.99
2023-03-18T10:34:28.071Z,15.17
2023-03-18T10:37:05.619Z,14.97
2023-03-18T10:39:33.636Z,15.74
2023-03-18T10:42:01.955Z,15.85
2023-03-18T10:44:31.097Z,16.72
2023-03-18T10:46:59.074Z,15.67
2023-03-18T10:49:29.050Z,17.53
2023-03-18T10:52:00.667Z,17.35
2023-03-18T10:54:27.430Z,15.52
2023-03-18T10:56:54.313Z,16.64
2023-03-18T10:59:22.868Z,17.07
2023-03-18T11:01:52.303Z,16.45
2023-03-18T11:04:21.582Z,15.43
2023-03-18T11:06:48.100Z,16.28
2023-03-18T11:09:19.940Z,16.83
2023-03-18T11:11:50.576Z,16.96
2023-03-18T11:14:22.214Z,16.90
2023-03-18T11:16:51.668Z,18.43
2023-03-18T11:19:38.522Z,18.71
2023-03-18T11:22:27.126Z,16.40
2023-03-18T11:25:12.265Z,15.67
2023-03-18T11:27:40.351Z,17.24
2023-03-18T11:30:18.682Z,17.80
2023-03-18T11:32:52.873Z,17.01
2023-03-18T11:35:20.976Z,18.01
2023-03-18T11:37:47.698Z,19.56
2023-03-18T11:40:14.178Z,18.66
2023-03-18T11:42:43.217Z,18.54
2023-03-18T11:45:29.660Z,18.55
2023-03-18T11:47:57.369Z,19.32
2023-03-18T11:50:27.645Z,19.42
2023-03-18T11:53:06.061Z,18.69
2023-03-18T11:55:52.739Z,18.96
2023-03-18T11:58:20.220Z,18.57
2023-03-18T12:01:03.291Z,19.10
2023-03-18T12:03:45.516Z,17.96
2023-03-18T12:06:13.080Z,19.88
2023-03-18T12:09:00.967Z,19.94
2023-03-18T12:11:46.874Z,19.87
2023-03-18T12:14:32.612Z,19.81
2023-03-18T12:17:05.389Z,17.42
2023-03-18T12:19:44.632Z,18.84
2023-03-18T12:22:22.469Z,18.92
2023-03-18T12:24:48.905Z,18.77
2023-03-18T12:27:20.265Z,18.70
2023-03-18T12:29:46.789Z,19.37
2023-03-18T12:32:31.966Z,19.29
2023-03-18T12:35:11.791Z,18.13
2023-03-18T12:37:57.038Z,18.47
2023-03-18T12:40:26.272Z,17.94
2023-03-18T12:42:55.656Z,17.47
2023-03-18T12:45:25.060Z,18.82
2023-03-18T12:48:00.601Z,19.68
2023-03-18T12:50:32.413Z,18.65
2023-03-18T12:53:01.818Z,18.77
2023-03-18T12:55:33.569Z,18.52
2023-03-18T12:58:05.901Z,17.43
2023-03-18T13:00:35.162Z,17.71
2023-03-18T13:03:08.540Z,18.11
2023-03-18T13:05:57.120Z,18.38
2023-03-18T13:08:48.472Z,18.39
2023-03-18T13:11:15.010Z,17.76
2023-03-18T13:13:44.377Z,18.28
2023-03-18T13:16:11.855Z,18.77
2023-03-18T13:18:43.870Z,18.08
2023-03-18T13:21:14.913Z,18.34
2023-03-18T13:23:47.324Z,18.57
2023-03-18T13:26:22.260Z,19.40
2023-03-18T13:29:06.332Z,19.02
2023-03-18T13:31:41.695Z,19.56
2023-03-18T13:34:08.148Z,18.39
2023-03-18T13:36:43.567Z,18.64
2023-03-18T13:39:34.131Z,19.51
2023-03-18T13:42:18.094Z,18.00
2023-03-18T13:44:48.135Z,18.01
2023-03-18T13:47:17.162Z,18.51
2023-03-18T13:49:44.738Z,18.14
2023-03-18T13:52:23.277Z,17.82
2023-03-18T13:54:50.163Z,17.76
2023-03-18T13:57:28.901Z,17.05
2023-03-18T14:00:14.787Z,16.80
2023-03-18T14:02:42.454Z,17.48
2023-03-18T14:05:29.558Z,17.05
2023-03-18T14:07:56.012Z,17.27
2023-03-18T14:10:23.448Z,16.64
2023-03-18T14:12:50.174Z,16.86
2023-03-18T14:15:22.725Z,16.91
2023-03-18T14:17:58.433Z,17.11
2023-03-18T14:20:24.990Z,16.25
2023-03-18T14:22:52.798Z,15.77
2023-03-18T14:25:23.291Z,16.56
2023-03-18T14:27:55.847Z,16.08
2023-03-18T14:30:45.843Z,16.33
2023-03-18T14:33:18.653Z,16.27
2023-03-18T14:35:48.132Z,16.11
2023-03-18T14:38:23.198Z,15.56
2023-03-18T14:40:51.639Z,15.76
2023-03-18T14:43:30.032Z,16.17
2023-03-18T14:45:58.762Z,15.46
2023-03-18T14:48:35.315Z,15.01
2023-03-18T14:51:13.055Z,15.74
2023-03-18T14:53:49.110Z,15.55
2023-03-18T14:56:22.825Z,15.31
2023-03-18T14:58:56.314Z,15.36
2023-03-18T15:01:24.818Z,15.58
2023-03-18T15:03:52.622Z,15.63
2023-03-18T15:06:21.730Z,15.28
2023-03-18T15:08:50.379Z,15.07
2023-03-18T15:11:19.332Z,15.07
2023-03-18T15:13:46.400Z,15.59
2023-03-18T15:16:14.315Z,15.67
2023-03-18T15:18:40.871Z,15.52
2023-03-18T15:21:17.141Z,15.64
2023-03-18T15:23:47.026Z,15.43
2023-03-18T15:26:24.422Z,15.60
2023-03-18T15:28:56.475Z,15.52
2023-03-18T15:31:24.414Z,16.06
2023-03-18T15:33:56.542Z,15.59
2023-03-18T15:36:23.723Z,15.87
2023-03-18T15:38:50.514Z,16.09
2023-03-18T15:41:18.414Z,16.03
2023-03-18T15:43:46.054Z,16.41
2023-03-18T15:46:19.256Z,16.26
2023-03-18T15:48:54.140Z,16.18
2023-03-18T15:51:28.707Z,16.14
2023-03-18T15:54:03.161Z,15.97
2023-03-18T15:56:33.957Z,16.42
2023-03-18T15:59:08.992Z,16.24
2023-03-18T16:01:36.194Z,15.58
2023-03-18T16:04:05.364Z,15.22
2023-03-18T16:06:34.472Z,15.00
2023-03-18T16:09:01.746Z,15.25
2023-03-18T16:11:28.778Z,15.48
2023-03-18T16:13:55.349Z,15.86
2023-03-18T16:16:26.199Z,15.45
2023-03-18T16:18:52.872Z,14.82
2023-03-18T16:21:20.683Z,14.62
2023-03-18T16:23:48.028Z,14.49
2023-03-18T16:26:16.166Z,14.76
2023-03-18T16:28:44.932Z,14.44
2023-03-18T16:31:13.047Z,14.20
2023-03-18T16:33:41.442Z,13.98
2023-03-18T16:36:18.126Z,13.75
2023-03-18T16:38:45.979Z,13.63
2023-03-18T16:41:12.415Z,13.62
2023-03-18T16:43:38.845Z,13.57
2023-03-18T16:46:06.304Z,13.79
2023-03-18T16:48:33.073Z,13.50
2023-03-18T16:51:02.464Z,13.30
2023-03-18T16:53:30.457Z,13.37
2023-03-18T16:56:02.212Z,13.34
2023-03-18T16:58:30.283Z,13.14
2023-03-18T17:00:57.051Z,12.54
2023-03-18T17:03:23.520Z,12.48
2023-03-18T17:05:50.602Z,12.22
2023-03-18T17:08:17.894Z,12.11
2023-03-18T17:10:45.077Z,11.89
2023-03-18T17:13:16.022Z,11.68
2023-03-18T17:15:43.041Z,11.50
2023-03-18T17:18:12.682Z,11.52
2023-03-18T17:20:39.150Z,11.45
2023-03-18T17:23:05.867Z,11.46
2023-03-18T17:25:32.733Z,11.29
2023-03-18T17:28:01.863Z,10.92
2023-03-18T17:30:31.430Z,10.83
2023-03-18T17:32:58.394Z,10.85
2023-03-18T17:35:25.140Z,10.77
2023-03-18T17:37:51.745Z,10.64
2023-03-18T17:40:19.131Z,10.42
2023-03-18T17:42:46.536Z,10.24
2023-03-18T17:45:19.113Z,10.28
2023-03-18T17:47:45.890Z,10.17
2023-03-18T17:50:17.160Z,9.99
2023-03-18T17:52:44.545Z,9.82
2023-03-18T17:55:15.896Z,9.82
2023-03-18T17:57:42.336Z,9.58
2023-03-18T18:00:14.562Z,9.40
2023-03-18T18:02:41.891Z,9.46
2023-03-18T18:05:16.220Z,9.39
2023-03-18T18:07:44.684Z,9.24
2023-03-18T18:10:16.178Z,9.17
2023-03-18T18:12:43.380Z,9.08
2023-03-18T18:15:20.145Z,9.06
2023-03-18T18:17:47.168Z,9.05
2023-03-18T18:20:15.285Z,8.87
2023-03-18T18:22:48.299Z,8.77
2023-03-18T18:25:16.616Z,8.45
2023-03-18T18:27:43.485Z,8.56
2023-03-18T18:30:14.346Z,8.34
2023-03-18T18:32:41.636Z,8.52
2023-03-18T18:35:10.613Z,8.59
2023-03-18T18:37:37.124Z,8.42
2023-03-18T18:40:04.091Z,8.49
2023-03-18T18:42:30.747Z,8.29
2023-03-18T18:44:57.229Z,8.25
2023-03-18T18:47:23.748Z,8.00
2023-03-18T18:49:50.925Z,8.06
2023-03-18T18:52:17.719Z,7.91
2023-03-18T18:54:44.998Z,7.81
2023-03-18T18:57:31.704Z,7.74
2023-03-18T18:59:58.405Z,7.59
2023-03-18T19:02:29.255Z,7.47
2023-03-18T19:04:55.703Z,7.59
2023-03-18T19:07:22.690Z,7.41
2023-03-18T19:09:49.609Z,7.52
2023-03-18T19:12:16.932Z,7.22
2023-03-18T19:14:43.562Z,7.40
2023-03-18T19:17:13.531Z,7.46
2023-03-18T19:19:41.608Z,7.39
2023-03-18T19:22:11.686Z,7.28
2023-03-18T19:24:39.212Z,7.08
2023-03-18T19:27:10.493Z,7.25
2023-03-18T19:29:37.260Z,7.24
2023-03-18T19:32:03.833Z,7.19
2023-03-18T19:34:32.083Z,7.02
2023-03-18T19:36:58.833Z,7.07
2023-03-18T19:39:27.635Z,7.08
2023-03-18T19:41:54.447Z,6.71
2023-03-18T19:44:22.586Z,6.88
2023-03-18T19:46:50.159Z,6.84
2023-03-18T19:49:19.852Z,6.57
2023-03-18T19:51:47.009Z,6.69
2023-03-18T19:54:19.841Z,6.70
2023-03-18T19:56:46.301Z,6.51
2023-03-18T19:59:18.875Z,6.18
2023-03-18T20:01:45.455Z,6.26
2023-03-18T20:04:15.335Z,6.30
2023-03-18T20:06:41.913Z,6.36
2023-03-18T20:09:08.453Z,6.42
2023-03-18T20:11:35.787Z,6.35
2023-03-18T20:14:02.213Z,6.23
2023-03-18T20:16:29.517Z,6.29
2023-03-18T20:18:56.039Z,6.35
2023-03-18T20:21:25.514Z,6.44
2023-03-18T20:23:53.301Z,6.34
2023-03-18T20:26:20.945Z,6.42
2023-03-18T20:28:48.991Z,6.10
2023-03-18T20:31:15.485Z,5.91
2023-03-18T20:33:42.069Z,5.78
2023-03-18T20:36:14.679Z,5.91
2023-03-18T20:38:42.305Z,6.14
2023-03-18T20:41:11.302Z,6.09
2023-03-18T20:43:37.877Z,6.13
2023-03-18T20:46:04.526Z,5.86
2023-03-18T20:48:31.265Z,5.55
2023-03-18T20:50:57.741Z,5.64
2023-03-18T20:53:25.429Z,5.62
2023-03-18T20:55:52.016Z,5.64
2023-03-18T20:58:23.055Z,5.79
2023-03-18T21:00:50.605Z,5.85
2023-03-18T21:03:20.984Z,5.60
2023-03-18T21:05:47.701Z,5.26
2023-03-18T21:08:14.160Z,5.34
2023-03-18T21:10:40.816Z,5.18
2023-03-18T21:13:27.093Z,5.11
2023-03-18T21:15:54.273Z,5.40
2023-03-18T21:18:20.947Z,5.36
2023-03-18T21:20:47.440Z,5.19
2023-03-18T21:23:21.837Z,5.27
2023-03-18T21:25:48.755Z,5.08
2023-03-18T21:28:16.145Z,5.22
2023-03-18T21:30:44.134Z,4.93
2023-03-18T21:33:17.735Z,4.96
2023-03-18T21:35:44.248Z,5.17
2023-03-18T21:38:10.953Z,5.03
2023-03-18T21:40:37.618Z,5.11
2023-03-18T21:43:16.476Z,5.14
2023-03-18T21:45:42.904Z,5.01
2023-03-18T21:48:09.760Z,4.95
2023-03-18T21:50:37.157Z,4.78
2023-03-18T21:53:04.316Z,4.71
2023-03-18T21:55:30.803Z,4.79
2023-03-18T21:57:57.363Z,4.83
2023-03-18T22:00:23.851Z,4.79
2023-03-18T22:02:50.563Z,4.68
2023-03-18T22:05:18.786Z,4.47
2023-03-18T22:07:45.981Z,4.27
2023-03-18T22:10:15.011Z,4.11
2023-03-18T22:12:41.481Z,4.21
2023-03-18T22:15:31.768Z,4.32
2023-03-18T22:17:58.408Z,4.41
2023-03-18T22:20:24.963Z,4.12
2023-03-18T22:22:51.642Z,4.14
2023-03-18T22:25:27.193Z,4.38
2023-03-18T22:27:53.658Z,4.42
2023-03-18T22:30:20.159Z,4.35
2023-03-18T22:32:47.404Z,4.20
2023-03-18T22:35:24.266Z,4.15
2023-03-18T22:37:51.136Z,4.23
2023-03-18T22:40:19.367Z,4.26
2023-03-18T22:42:47.281Z,4.11
2023-03-18T22:45:19.853Z,4.08
2023-03-18T22:47:46.382Z,4.09
2023-03-18T22:50:12.915Z,4.12
2023-03-18T22:52:39.623Z,4.05
2023-03-18T22:55:14.893Z,4.18
2023-03-18T22:57:41.403Z,3.83
2023-03-18T23:00:20.496Z,3.90
2023-03-18T23:02:46.976Z,3.85
2023-03-18T23:05:16.797Z,3.88
2023-03-18T23:07:43.575Z,3.73
2023-03-18T23:10:10.748Z,3.85
2023-03-18T23:12:37.754Z,3.95
2023-03-18T23:15:04.932Z,3.94
2023-03-18T23:17:31.377Z,3.95
2023-03-18T23:19:57.964Z,3.62
2023-03-18T23:22:28.694Z,3.47
2023-03-18T23:24:55.688Z,3.48
2023-03-18T23:27:22.953Z,3.56
2023-03-18T23:29:49.526Z,3.64
2023-03-18T23:32:16.649Z,3.48
2023-03-18T23:34:43.861Z,3.35
2023-03-18T23:37:11.357Z,3.41
2023-03-18T23:39:42.994Z,3.58
2023-03-18T23:42:11.550Z,3.51
2023-03-18T23:44:38.460Z,3.34
2023-03-18T23:47:05.950Z,3.07
2023-03-18T23:49:33.540Z,3.09
2023-03-18T23:52:05.841Z,3.27
2023-03-18T23:54:33.985Z,3.38
2023-03-18T23:57:01.521Z,3.37
2023-03-18T23:59:28.305Z,3.38
